Time;durP1;ratioP1;P1;durP2;ratioP2;P2;SDS_P1;SDS_P2;PMS_P1;PMS_P2;Temp;Humidity;BMP_temperature;BMP_pressure;BME280_temperature;BME280_humidity;BME280_pressure;Samples;Min_cycle;Max_cycle;Signal;HPM_P1;HPM_P2
2023/06/26 00:00:28;;;;;;;;;;;;;;;19.64;52.22;92945.75;2057694;69;20114;-79
2023/06/26 00:02:54;;;;;;;;;;;;;;;19.53;52.23;92944.69;2057693;69;20463;-77
2023/06/26 00:05:19;;;;;;;;;;;;;;;19.71;51.43;92950.28;2057845;69;20497;-78
2023/06/26 00:07:45;;;;;;;;;;;;;;;19.62;52.13;92945.72;2054535;69;20065;-77
2023/06/26 00:10:11;;;;;;;;;;;;;;;19.60;52.42;92947.72;2057670;69;20061;-78
2023/06/26 00:12:36;;;;;;;;;;;;;;;19.25;53.25;92955.22;2057372;69;20058;-77
2023/06/26 00:15:04;;;;;;;;;;;;;;;19.50;52.31;92954.59;2057591;69;20089;-77
2023/06/26 00:17:30;;;;;;;;;;;;;;;19.35;52.77;92958.38;2057612;69;20077;-78
2023/06/26 00:19:56;;;;;;;;;;;;;;;19.45;52.13;92953.00;2057608;69;20058;-77
2023/06/26 00:22:22;;;;;;;;;;;;;;;19.45;52.65;92950.13;2054303;69;20054;-78
2023/06/26 00:24:48;;;;;;;;;;;;;;;19.51;51.62;92952.47;2057808;69;20062;-78
2023/06/26 00:27:13;;;;;;;;;;;;;;;19.46;52.31;92962.28;2058112;69;20588;-78
2023/06/26 00:29:39;;;;;;;;;;;;;;;19.40;52.64;92957.13;2055163;69;20371;-78
2023/06/26 00:32:04;;;;;;;;;;;;;;;19.44;52.07;92942.97;2058772;69;20164;-79
2023/06/26 00:34:32;;;;;;;;;;;;;;;19.48;51.48;92954.53;2055442;69;20065;-76
2023/06/26 00:36:58;;;;;;;;;;;;;;;19.35;52.52;92954.81;2058555;69;20050;-78
2023/06/26 00:42:52;;;;;;;;;;;;;;;19.34;52.06;92961.91;2058732;69;20532;-77
2023/06/26 00:48:47;;;;;;;;;;;;;;;19.16;52.63;92967.75;2058649;69;20053;-78
2023/06/26 00:54:42;;;;;;;;;;;;;;;19.16;51.97;92974.19;2058721;69;20057;-78
2023/06/26 00:57:08;;;;;;;;;;;;;;;18.90;52.90;92976.88;2055294;69;20069;-80
2023/06/26 00:59:35;;;;;;;;;;;;;;;18.82;53.03;92970.16;2058348;69;20425;-80
2023/06/26 01:02:00;;;;;;;;;;;;;;;18.92;52.93;92976.19;2054504;69;20053;-81
2023/06/26 01:04:27;;;;;;;;;;;;;;;18.90;52.68;92974.00;2058516;69;20143;-78
2023/06/26 01:06:54;;;;;;;;;;;;;;;18.78;53.52;92973.59;2058545;69;20077;-78
2023/06/26 01:09:20;;;;;;;;;;;;;;;18.81;52.77;92971.56;2054505;69;20140;-78
2023/06/26 01:11:46;;;;;;;;;;;;;;;18.76;53.41;92965.69;2058269;69;20494;-78
2023/06/26 01:14:12;;;;;;;;;;;;;;;18.85;53.32;92968.84;2058660;69;20049;-78
2023/06/26 01:16:39;;;;;;;;;;;;;;;18.86;53.10;92959.63;2054578;69;20046;-78
2023/06/26 01:19:24;;;;;;;;;;;;;;;18.83;53.77;92966.66;2055481;69;20061;-79
2023/06/26 01:21:51;;;;;;;;;;;;;;;18.72;53.72;92964.81;2058620;69;20078;-78
2023/06/26 01:24:20;;;;;;;;;;;;;;;18.81;52.78;92957.28;2058527;69;20077;-78
2023/06/26 01:26:49;;;;;;;;;;;;;;;18.89;51.72;92963.28;2054914;69;20056;-78
2023/06/26 01:29:16;;;;;;;;;;;;;;;18.40;52.96;92970.09;2058565;69;20425;-79
2023/06/26 01:31:43;;;;;;;;;;;;;;;18.61;51.55;92960.88;2054855;69;20498;-78
2023/06/26 01:34:09;;;;;;;;;;;;;;;18.80;52.41;92962.25;2058837;69;20089;-78
2023/06/26 01:36:37;;;;;;;;;;;;;;;18.65;52.57;92966.00;2058768;69;20486;-78
2023/06/26 01:39:04;;;;;;;;;;;;;;;18.86;50.86;92965.31;2058658;69;20502;-79
2023/06/26 01:41:30;;;;;;;;;;;;;;;18.74;51.39;92959.22;2058490;69;20498;-79
2023/06/26 01:43:55;;;;;;;;;;;;;;;18.68;51.83;92959.69;2058248;69;20472;-78
2023/06/26 01:46:34;;;;;;;;;;;;;;;18.70;50.91;92959.78;2055038;69;20054;-78
2023/06/26 01:49:05;;;;;;;;;;;;;;;18.60;51.17;92965.13;2055194;69;20054;-78
2023/06/26 01:51:35;;;;;;;;;;;;;;;18.68;50.76;92958.94;2058764;69;20141;-78
2023/06/26 01:54:05;;;;;;;;;;;;;;;18.68;52.09;92965.38;2058165;69;20065;-77
2023/06/26 01:56:31;;;;;;;;;;;;;;;18.89;50.73;92968.97;2055133;69;20054;-78
2023/06/26 01:58:57;;;;;;;;;;;;;;;18.85;50.72;92968.84;2055623;69;20054;-78
2023/06/26 02:04:52;;;;;;;;;;;;;;;18.97;49.79;92977.81;2058397;69;20123;-79
2023/06/26 02:07:18;;;;;;;;;;;;;;;18.82;49.95;92970.88;2058775;69;20473;-77
2023/06/26 02:09:43;;;;;;;;;;;;;;;18.89;49.93;92968.97;2054910;69;20061;-79
2023/06/26 02:12:09;;;;;;;;;;;;;;;18.80;50.60;92973.69;2058757;69;20151;-79
2023/06/26 02:14:35;;;;;;;;;;;;;;;18.72;50.08;92976.97;2055486;69;20646;-79
2023/06/26 02:17:01;;;;;;;;;;;;;;;18.97;49.56;92974.97;2055247;69;20141;-79
2023/06/26 02:19:27;;;;;;;;;;;;;;;18.88;49.72;92971.09;2055259;69;20057;-80
2023/06/26 02:21:53;;;;;;;;;;;;;;;18.98;49.43;92971.44;2058424;69;20053;-79
2023/06/26 02:24:19;;;;;;;;;;;;;;;18.97;49.92;92974.97;2058439;69;20437;-80
2023/06/26 02:26:45;;;;;;;;;;;;;;;18.90;49.50;92967.59;2058346;69;20149;-78
2023/06/26 02:29:11;;;;;;;;;;;;;;;18.88;49.11;92973.22;2058309;69;20050;-80
2023/06/26 02:31:39;;;;;;;;;;;;;;;18.93;48.76;92974.81;2058095;69;20105;-79
2023/06/26 02:34:04;;;;;;;;;;;;;;;19.04;47.91;92971.63;2058493;69;20093;-79
2023/06/26 02:36:31;;;;;;;;;;;;;;;18.87;49.48;92972.47;2058398;69;20068;-76
2023/06/26 02:38:57;;;;;;;;;;;;;;;18.96;49.73;92971.34;2055101;69;20050;-77
2023/06/26 02:41:22;;;;;;;;;;;;;;;19.05;48.60;92970.25;2058561;69;20116;-77
2023/06/26 02:43:49;;;;;;;;;;;;;;;19.16;47.86;92970.59;2055240;69;20080;-77
2023/06/26 02:46:15;;;;;;;;;;;;;;;18.75;49.60;92981.34;2052455;69;20490;-77
2023/06/26 02:48:44;;;;;;;;;;;;;;;18.79;49.28;92981.50;2058346;69;20155;-78
2023/06/26 02:51:09;;;;;;;;;;;;;;;18.94;48.35;92988.41;2055053;69;20165;-78
2023/06/26 02:53:35;;;;;;;;;;;;;;;18.89;49.18;92983.25;2058461;69;20066;-79
2023/06/26 02:56:00;;;;;;;;;;;;;;;19.03;48.51;92980.88;2058501;69;20054;-79
2023/06/26 03:01:54;;;;;;;;;;;;;;;18.75;49.21;92989.19;2058302;69;20207;-79
2023/06/26 03:04:25;;;;;;;;;;;;;;;18.74;49.28;92985.59;2054945;69;20110;-78
2023/06/26 03:06:51;;;;;;;;;;;;;;;18.56;49.62;92987.78;2055195;69;20085;-78
2023/06/26 03:09:17;;;;;;;;;;;;;;;18.81;49.27;92988.66;2055111;69;20493;-79
2023/06/26 03:11:44;;;;;;;;;;;;;;;18.84;49.18;92985.22;2055096;69;20056;-78
2023/06/26 03:14:10;;;;;;;;;;;;;;;18.93;49.46;92986.25;2055276;69;20069;-78
2023/06/26 03:16:36;;;;;;;;;;;;;;;18.89;49.03;92977.53;2055176;69;20160;-78
2023/06/26 03:19:03;;;;;;;;;;;;;;;18.93;48.89;92986.97;2052080;69;20527;-79
2023/06/26 03:21:30;;;;;;;;;;;;;;;18.58;50.27;92993.53;2054872;69;20136;-79
2023/06/26 03:23:55;;;;;;;;;;;;;;;18.75;48.89;92989.19;2054987;69;20058;-79
2023/06/26 03:26:27;;;;;;;;;;;;;;;18.63;50.06;92994.41;2058564;69;20422;-80
2023/06/26 03:28:53;;;;;;;;;;;;;;;18.65;50.44;92992.38;2055095;69;20046;-78
2023/06/26 03:31:19;;;;;;;;;;;;;;;18.66;49.83;92993.84;2054794;69;20054;-77
2023/06/26 03:33:45;;;;;;;;;;;;;;;18.88;48.14;92988.22;2054895;69;20129;-78
2023/06/26 03:36:10;;;;;;;;;;;;;;;18.83;49.12;92997.28;2055121;69;20141;-77
2023/06/26 03:42:04;;;;;;;;;;;;;;;18.83;49.35;93002.97;2058490;69;20212;-78
2023/06/26 03:44:31;;;;;;;;;;;;;;;18.54;49.92;93005.53;2054936;69;20544;-78
2023/06/26 03:46:57;;;;;;;;;;;;;;;18.58;50.02;93002.09;2054496;69;20159;-78
2023/06/26 03:49:22;;;;;;;;;;;;;;;18.53;50.56;93000.50;2055321;69;20092;-78
2023/06/26 03:51:49;;;;;;;;;;;;;;;18.59;50.35;93002.81;2055505;69;20046;-78
2023/06/26 03:54:14;;;;;;;;;;;;;;;18.67;50.78;92994.56;2055548;69;20097;-78
2023/06/26 03:56:42;;;;;;;;;;;;;;;18.68;49.85;92996.75;2055550;69;20061;-78
2023/06/26 03:59:09;;;;;;;;;;;;;;;18.54;50.45;92996.97;2055583;69;20141;-79
2023/06/26 04:01:36;;;;;;;;;;;;;;;18.63;50.58;93000.13;2058886;69;20121;-79
2023/06/26 04:04:01;;;;;;;;;;;;;;;18.63;50.25;92994.41;2055556;69;20078;-79
2023/06/26 04:06:28;;;;;;;;;;;;;;;18.59;50.66;92995.00;2055150;69;20093;-80
2023/06/26 04:08:55;;;;;;;;;;;;;;;18.46;50.86;92993.84;2055028;69;20057;-79
2023/06/26 04:11:20;;;;;;;;;;;;;;;18.68;49.42;92996.75;2055464;69;20070;-79
2023/06/26 04:13:45;;;;;;;;;;;;;;;18.70;49.09;93005.41;2058869;69;20410;-80
2023/06/26 04:16:11;;;;;;;;;;;;;;;18.65;50.43;93003.06;2058785;69;20045;-79
2023/06/26 04:18:37;;;;;;;;;;;;;;;18.41;50.81;92997.91;2058846;69;20072;-79
2023/06/26 04:21:14;;;;;;;;;;;;;;;18.47;50.13;93003.84;2058923;69;20169;-78
2023/06/26 04:23:40;;;;;;;;;;;;;;;18.60;50.08;93007.88;2058415;69;20153;-79
2023/06/26 04:26:06;;;;;;;;;;;;;;;18.71;50.07;93009.72;2058869;69;20149;-79
2023/06/26 04:31:59;;;;;;;;;;;;;;;18.65;50.72;93011.63;2058813;69;20481;-81
2023/06/26 04:34:25;;;;;;;;;;;;;;;18.68;50.41;92999.59;2058906;69;20050;-78
2023/06/26 04:36:51;;;;;;;;;;;;;;;18.87;50.10;93001.00;2058706;69;20402;-79
2023/06/26 04:39:17;;;;;;;;;;;;;;;18.85;49.82;93009.50;2058629;69;20068;-79
2023/06/26 04:41:42;;;;;;;;;;;;;;;18.69;50.47;93003.22;2055580;69;20110;-79
2023/06/26 04:44:08;;;;;;;;;;;;;;;18.87;49.61;93009.56;2058720;69;20089;-79
2023/06/26 04:46:33;;;;;;;;;;;;;;;18.93;49.21;93003.34;2055340;69;20065;-79
2023/06/26 04:48:59;;;;;;;;;;;;;;;18.92;49.35;92996.91;2058681;69;20137;-78
2023/06/26 04:51:26;;;;;;;;;;;;;;;19.01;49.16;92995.81;2058565;69;20054;-79
2023/06/26 04:53:52;;;;;;;;;;;;;;;18.99;49.05;92992.88;2058586;69;20105;-79
2023/06/26 04:56:18;;;;;;;;;;;;;;;18.94;49.17;92999.09;2058579;69;20046;-79
2023/06/26 04:58:43;;;;;;;;;;;;;;;19.02;49.15;92991.56;2055355;69;20101;-79
2023/06/26 05:01:10;;;;;;;;;;;;;;;19.11;49.09;92989.00;2055310;69;20073;-80
2023/06/26 05:03:36;;;;;;;;;;;;;;;19.07;49.31;92994.56;2058574;69;20432;-80
2023/06/26 05:06:02;;;;;;;;;;;;;;;19.12;49.45;92994.03;2058643;69;20143;-79
2023/06/26 05:08:29;;;;;;;;;;;;;;;19.10;49.27;92993.94;2058505;69;20100;-78
2023/06/26 05:10:57;;;;;;;;;;;;;;;19.13;49.70;92997.59;2058616;69;20054;-78
2023/06/26 05:13:23;;;;;;;;;;;;;;;19.06;51.24;92990.97;2058821;69;20116;-79
2023/06/26 05:15:49;;;;;;;;;;;;;;;18.78;51.71;92996.41;2058755;69;20467;-78
2023/06/26 05:18:14;;;;;;;;;;;;;;;18.91;50.81;92998.28;2058649;69;20089;-78
2023/06/26 05:20:41;;;;;;;;;;;;;;;18.98;49.97;92999.97;2058456;69;20454;-78
2023/06/26 05:23:06;;;;;;;;;;;;;;;18.57;53.20;93014.16;2055169;69;20054;-78
2023/06/26 05:25:33;;;;;;;;;;;;;;;18.86;51.53;93004.53;2055334;69;20054;-78
2023/06/26 05:27:59;;;;;;;;;;;;;;;18.73;53.06;93006.94;2058606;69;20116;-78
2023/06/26 05:30:25;;;;;;;;;;;;;;;18.76;52.37;93008.47;2058540;69;20069;-78
2023/06/26 05:32:51;;;;;;;;;;;;;;;18.71;51.08;93011.84;2058682;69;20066;-78
2023/06/26 05:35:18;;;;;;;;;;;;;;;18.79;51.03;93010.03;2058745;69;20124;-79
2023/06/26 05:37:43;;;;;;;;;;;;;;;18.70;51.50;93001.84;2058662;69;20153;-79
2023/06/26 05:40:09;;;;;;;;;;;;;;;18.83;51.54;93000.88;2058634;69;20536;-79
2023/06/26 05:42:34;;;;;;;;;;;;;;;18.89;52.50;93003.22;2058945;69;20077;-79
2023/06/26 05:45:00;;;;;;;;;;;;;;;18.86;52.55;92996.69;2058851;69;20069;-79
2023/06/26 05:47:25;;;;;;;;;;;;;;;19.00;51.51;93002.16;2058839;69;20083;-78
2023/06/26 05:49:51;;;;;;;;;;;;;;;18.87;52.31;92995.28;2058602;69;20133;-78
2023/06/26 05:52:16;;;;;;;;;;;;;;;19.05;51.06;93003.75;2058460;69;20116;-79
2023/06/26 05:54:42;;;;;;;;;;;;;;;19.08;51.85;92996.00;2058517;69;20483;-79
2023/06/26 05:57:08;;;;;;;;;;;;;;;18.94;52.44;92988.41;2058552;69;20144;-79
2023/06/26 05:59:36;;;;;;;;;;;;;;;18.84;53.42;92985.22;2058632;69;20172;-79
2023/06/26 06:02:02;;;;;;;;;;;;;;;18.87;53.14;92992.44;2054996;69;20049;-79
2023/06/26 06:04:27;;;;;;;;;;;;;;;18.91;54.06;92986.88;2058664;69;20115;-80
2023/06/26 06:06:53;;;;;;;;;;;;;;;19.02;53.73;92987.97;2058632;69;20120;-80
2023/06/26 06:09:18;;;;;;;;;;;;;;;19.02;53.40;92991.56;2058499;69;20429;-80
2023/06/26 06:11:44;;;;;;;;;;;;;;;19.21;52.28;92992.16;2058485;69;20046;-81
2023/06/26 06:14:09;;;;;;;;;;;;;;;18.96;52.42;92985.63;2058628;69;20062;-79
2023/06/26 06:16:34;;;;;;;;;;;;;;;19.21;52.81;92986.47;2058733;69;20054;-79
2023/06/26 06:19:00;;;;;;;;;;;;;;;19.28;51.92;92988.84;2058571;69;20066;-79
2023/06/26 06:21:25;;;;;;;;;;;;;;;19.44;52.12;92982.22;2058758;69;20050;-79
2023/06/26 06:23:52;;;;;;;;;;;;;;;19.51;52.15;92981.00;2058595;69;20050;-80
2023/06/26 06:26:17;;;;;;;;;;;;;;;19.65;52.78;92980.75;2060531;69;20058;-78
2023/06/26 06:28:43;;;;;;;;;;;;;;;19.71;52.11;92973.13;2060042;69;20429;-78
2023/06/26 06:34:37;;;;;;;;;;;;;;;20.02;51.14;92971.94;2058657;69;20085;-79
2023/06/26 06:37:03;;;;;;;;;;;;;;;20.16;50.75;92970.88;2058832;69;20077;-80
2023/06/26 06:39:28;;;;;;;;;;;;;;;20.14;52.41;92976.53;2058510;69;20058;-80
2023/06/26 06:41:54;;;;;;;;;;;;;;;20.35;49.93;92972.16;2058707;69;20490;-80
2023/06/26 06:44:21;;;;;;;;;;;;;;;20.43;50.91;92961.66;2054965;69;20165;-80
2023/06/26 06:46:47;;;;;;;;;;;;;;;20.52;50.13;92959.78;2058596;69;20064;-80
2023/06/26 06:49:15;;;;;;;;;;;;;;;20.52;50.07;92960.50;2058521;69;20062;-80
2023/06/26 06:51:41;;;;;;;;;;;;;;;20.65;49.32;92961.59;2058536;69;20070;-80
2023/06/26 06:54:08;;;;;;;;;;;;;;;20.77;50.05;92961.19;2058409;69;20042;-80
2023/06/26 06:56:33;;;;;;;;;;;;;;;20.83;51.13;92969.22;2058457;69;20068;-80
2023/06/26 06:58:59;;;;;;;;;;;;;;;20.93;50.17;92969.47;2058541;69;20549;-79
2023/06/26 07:01:24;;;;;;;;;;;;;;;20.98;49.68;92968.94;2058471;69;20120;-80
2023/06/26 07:03:49;;;;;;;;;;;;;;;21.14;49.92;92965.75;2054868;69;20073;-79
2023/06/26 07:06:15;;;;;;;;;;;;;;;21.16;49.14;92962.19;2058414;69;20084;-81
2023/06/26 07:08:41;;;;;;;;;;;;;;;21.22;48.96;92963.09;2058392;69;20070;-80
2023/06/26 07:11:07;;;;;;;;;;;;;;;21.34;48.67;92964.84;2058635;69;20082;-80
2023/06/26 07:13:32;;;;;;;;;;;;;;;21.50;47.68;92956.66;2058438;69;20565;-79
2023/06/26 07:15:58;;;;;;;;;;;;;;;21.57;48.09;92952.50;2058259;69;20046;-80
2023/06/26 07:18:24;;;;;;;;;;;;;;;21.60;48.58;92950.44;2058438;69;20060;-80
2023/06/26 07:20:50;;;;;;;;;;;;;;;21.75;48.43;92952.94;2058615;69;20066;-80
2023/06/26 07:23:15;;;;;;;;;;;;;;;21.83;48.23;92944.53;2058330;69;20073;-79
2023/06/26 07:25:41;;;;;;;;;;;;;;;21.91;47.94;92949.72;2058553;69;20047;-79
2023/06/26 07:28:10;;;;;;;;;;;;;;;21.97;48.41;92947.00;2058452;69;20479;-78
2023/06/26 07:30:35;;;;;;;;;;;;;;;22.11;47.76;92928.66;2058604;69;20042;-79
2023/06/26 07:33:01;;;;;;;;;;;;;;;22.20;44.88;92933.19;2058454;69;20222;-79
2023/06/26 07:35:27;;;;;;;;;;;;;;;22.35;46.22;92931.31;2058585;69;20058;-79
2023/06/26 07:37:53;;;;;;;;;;;;;;;22.35;44.40;92937.06;2058362;69;20205;-80
2023/06/26 07:40:18;;;;;;;;;;;;;;;22.46;45.08;92924.41;2058576;69;20153;-82
2023/06/26 07:42:43;;;;;;;;;;;;;;;22.64;44.92;92924.03;2058555;69;20050;-79
2023/06/26 07:45:11;;;;;;;;;;;;;;;22.70;45.52;92929.88;2058621;69;20042;-78
2023/06/26 07:51:06;;;;;;;;;;;;;;;23.03;45.18;92917.59;2058412;69;20045;-80
2023/06/26 07:53:31;;;;;;;;;;;;;;;23.24;45.89;92920.84;2058494;69;20061;-83
2023/06/26 07:55:56;;;;;;;;;;;;;;;23.26;43.23;92915.13;2058543;69;20121;-86
2023/06/26 07:58:22;;;;;;;;;;;;;;;23.27;44.07;92902.22;2058475;69;20136;-82
2023/06/26 08:00:47;;;;;;;;;;;;;;;23.42;44.21;92912.53;2058491;69;20054;-83
2023/06/26 08:03:13;;;;;;;;;;;;;;;23.66;44.50;92914.38;2058381;69;20073;-82
2023/06/26 08:05:38;;;;;;;;;;;;;;;23.79;42.03;92913.13;2058355;69;20066;-79
2023/06/26 08:08:04;;;;;;;;;;;;;;;24.01;41.84;92918.50;2058160;69;20050;-78
2023/06/26 08:10:30;;;;;;;;;;;;;;;24.28;41.05;92910.91;2058362;69;20148;-79
2023/06/26 08:12:56;;;;;;;;;;;;;;;24.27;41.65;92913.06;2058441;69;20488;-79
2023/06/26 08:18:50;;;;;;;;;;;;;;;24.70;41.87;92905.00;2058418;69;20569;-81
2023/06/26 08:24:44;;;;;;;;;;;;;;;25.64;41.71;92910.94;2058298;69;20053;-78
2023/06/26 08:27:09;;;;;;;;;;;;;;;25.88;40.88;92905.38;2058353;69;20057;-78
2023/06/26 08:29:35;;;;;;;;;;;;;;;26.19;40.01;92896.91;2058286;69;20050;-78
2023/06/26 08:32:02;;;;;;;;;;;;;;;26.66;38.42;92895.00;2054691;69;20187;-78
2023/06/26 08:34:27;;;;;;;;;;;;;;;27.03;36.70;92906.66;2055075;69;20046;-78
2023/06/26 08:36:52;;;;;;;;;;;;;;;27.34;36.22;92904.56;2058852;69;20046;-78
2023/06/26 08:39:18;;;;;;;;;;;;;;;27.63;34.89;92899.56;2058731;69;20053;-78
2023/06/26 08:41:44;;;;;;;;;;;;;;;28.11;36.26;92889.41;2058856;69;20054;-79
2023/06/26 08:44:10;;;;;;;;;;;;;;;28.70;34.55;92877.66;2058824;69;20112;-80
2023/06/26 08:46:36;;;;;;;;;;;;;;;29.45;30.99;92884.50;2058791;69;20561;-79
2023/06/26 08:49:09;;;;;;;;;;;;;;;29.32;30.11;92875.91;2058830;69;20075;-78
2023/06/26 08:51:36;;;;;;;;;;;;;;;29.57;30.85;92884.44;2058899;69;20058;-79
2023/06/26 08:54:05;;;;;;;;;;;;;;;29.93;30.51;92879.81;2058714;69;20073;-78
2023/06/26 08:56:52;;;;;;;;;;;;;;;30.27;30.91;92879.47;2058951;69;20076;-79
2023/06/26 08:59:18;;;;;;;;;;;;;;;30.51;29.78;92883.56;2058889;69;20053;-78
2023/06/26 09:01:45;;;;;;;;;;;;;;;30.89;27.10;92879.53;2058758;69;20050;-79
2023/06/26 09:04:12;;;;;;;;;;;;;;;30.93;26.69;92870.75;2058889;69;20058;-79
2023/06/26 09:06:39;;;;;;;;;;;;;;;31.30;26.58;92876.81;2058766;69;20058;-79
2023/06/26 09:09:04;;;;;;;;;;;;;;;32.53;26.79;92875.53;2058695;69;20046;-79
2023/06/26 09:11:30;;;;;;;;;;;;;;;32.22;26.22;92871.72;2058663;69;20123;-78
2023/06/26 09:13:55;;;;;;;;;;;;;;;31.28;24.74;92861.56;2058880;69;20413;-78
2023/06/26 09:16:26;;;;;;;;;;;;;;;31.48;25.54;92864.19;2058774;69;20424;-78
2023/06/26 09:18:52;;;;;;;;;;;;;;;31.40;26.05;92864.31;2058923;69;20073;-78
2023/06/26 09:21:19;;;;;;;;;;;;;;;32.24;23.69;92860.03;2058366;69;20058;-79
2023/06/26 09:23:45;;;;;;;;;;;;;;;31.56;23.82;92858.22;2058611;69;20050;-80
2023/06/26 09:26:11;;;;;;;;;;;;;;;32.21;23.84;92847.72;2058959;69;20085;-80
2023/06/26 09:28:36;;;;;;;;;;;;;;;32.03;23.07;92857.50;2058832;69;20097;-81
2023/06/26 09:31:05;;;;;;;;;;;;;;;32.25;24.59;92855.63;2055528;69;20545;-78
2023/06/26 09:33:36;;;;;;;;;;;;;;;33.26;22.87;92849.25;2058812;69;20163;-79
2023/06/26 09:36:04;;;;;;;;;;;;;;;33.17;23.17;92854.53;2058778;69;20050;-80
2023/06/26 09:38:30;;;;;;;;;;;;;;;34.00;23.06;92854.13;2052482;69;20058;-78
2023/06/26 09:40:56;;;;;;;;;;;;;;;33.86;21.73;92846.41;2058884;69;20050;-78
2023/06/26 09:43:21;;;;;;;;;;;;;;;34.46;22.47;92857.31;2055438;69;20054;-79
2023/06/26 09:45:47;;;;;;;;;;;;;;;34.54;22.48;92848.34;2058605;69;20046;-80
2023/06/26 09:48:13;;;;;;;;;;;;;;;34.53;21.33;92850.53;2058303;69;20120;-80
2023/06/26 09:50:41;;;;;;;;;;;;;;;33.76;21.37;92844.44;2058677;69;20089;-80
2023/06/26 09:53:13;;;;;;;;;;;;;;;34.54;20.88;92842.47;2058571;69;20214;-80
2023/06/26 09:55:39;;;;;;;;;;;;;;;35.20;20.30;92835.50;2058678;69;20062;-80
2023/06/26 09:58:05;;;;;;;;;;;;;;;35.61;20.03;92844.50;2055340;69;20050;-79
2023/06/26 10:00:31;;;;;;;;;;;;;;;34.55;20.46;92835.88;2058730;69;20066;-80
2023/06/26 10:02:57;;;;;;;;;;;;;;;35.10;21.01;92833.63;2058618;69;20046;-80
2023/06/26 10:05:22;;;;;;;;;;;;;;;35.43;20.20;92842.09;2058945;69;20099;-79
2023/06/26 10:07:48;;;;;;;;;;;;;;;35.98;20.05;92840.41;2052555;69;20050;-77
2023/06/26 10:10:14;;;;;;;;;;;;;;;36.03;18.78;92838.03;2058763;69;20054;-77
2023/06/26 10:12:39;;;;;;;;;;;;;;;36.44;18.83;92845.47;2058807;69;20113;-78
2023/06/26 10:15:06;;;;;;;;;;;;;;;36.48;18.11;92834.31;2058631;69;20042;-77
2023/06/26 10:17:34;;;;;;;;;;;;;;;36.80;18.58;92837.59;2058620;69;20084;-79
2023/06/26 10:20:02;;;;;;;;;;;;;;;36.63;19.01;92825.72;2058628;69;20197;-79
2023/06/26 10:22:29;;;;;;;;;;;;;;;37.61;18.40;92833.81;2058399;69;20554;-79
2023/06/26 10:24:58;;;;;;;;;;;;;;;37.88;18.40;92836.41;2058519;69;20501;-79
2023/06/26 10:27:25;;;;;;;;;;;;;;;38.52;18.32;92838.16;2058558;69;20403;-79
2023/06/26 10:29:53;;;;;;;;;;;;;;;38.53;17.41;92824.16;2055210;69;20097;-79
2023/06/26 10:32:20;;;;;;;;;;;;;;;37.78;17.76;92825.06;2058280;69;20050;-79
2023/06/26 10:34:45;;;;;;;;;;;;;;;39.05;17.95;92832.19;2058563;69;20050;-78
2023/06/26 10:37:12;;;;;;;;;;;;;;;38.50;17.13;92828.72;2058480;69;20076;-79
2023/06/26 10:39:49;;;;;;;;;;;;;;;37.23;17.75;92827.91;2058451;69;20054;-79
2023/06/26 10:42:15;;;;;;;;;;;;;;;40.51;15.65;92815.63;2055167;69;20205;-79
2023/06/26 10:44:43;;;;;;;;;;;;;;;42.37;14.77;92829.16;2058548;69;20137;-78
2023/06/26 10:47:09;;;;;;;;;;;;;;;43.22;13.35;92841.13;2058615;69;20130;-78
2023/06/26 10:49:35;;;;;;;;;;;;;;;43.66;12.89;92833.22;2058523;69;20498;-78
2023/06/26 10:52:01;;;;;;;;;;;;;;;43.50;13.03;92835.69;2058601;69;20093;-79
2023/06/26 10:57:55;;;;;;;;;;;;;;;44.84;11.92;92816.59;2058542;69;20440;-79
2023/06/26 11:00:25;;;;;;;;;;;;;;;48.42;11.79;92829.91;2058567;69;20542;-78
2023/06/26 11:02:51;;;;;;;;;;;;;;;46.79;11.28;92825.59;2058290;69;20093;-79
2023/06/26 11:05:29;;;;;;;;;;;;;;;48.54;11.52;92816.25;2058595;69;20046;-78
2023/06/26 11:08:08;;;;;;;;;;;;;;;41.42;13.91;92800.50;2058459;69;20058;-77
2023/06/26 11:10:50;;;;;;;;;;;;;;;44.05;12.54;92802.53;2058516;69;20046;-78
2023/06/26 11:13:18;;;;;;;;;;;;;;;49.43;11.04;92810.91;2058509;69;20057;-78
2023/06/26 11:15:44;;;;;;;;;;;;;;;50.18;10.62;92814.84;2058591;69;20058;-78
2023/06/26 11:18:10;;;;;;;;;;;;;;;50.69;10.77;92813.22;2058498;69;20042;-78
2023/06/26 11:20:36;;;;;;;;;;;;;;;52.08;8.97;92819.47;2058522;69;20049;-78
2023/06/26 11:23:03;;;;;;;;;;;;;;;52.70;9.09;92814.16;2055128;69;20153;-78
2023/06/26 11:25:29;;;;;;;;;;;;;;;52.37;9.01;92812.97;2058466;69;20066;-78
2023/06/26 11:27:55;;;;;;;;;;;;;;;40.71;14.64;92786.59;2058424;69;20086;-78
2023/06/26 11:30:24;;;;;;;;;;;;;;;42.73;12.81;92790.09;2058430;69;20066;-79
2023/06/26 11:32:49;;;;;;;;;;;;;;;47.08;10.77;92797.31;2058204;69;20054;-77
2023/06/26 11:35:29;;;;;;;;;;;;;;;50.50;9.05;92793.25;2058495;69;20046;-77
2023/06/26 11:37:56;;;;;;;;;;;;;;;47.47;10.64;92791.31;2058407;69;20572;-78
2023/06/26 11:40:26;;;;;;;;;;;;;;;47.07;9.92;92795.22;2058452;69;20153;-78
2023/06/26 11:42:52;;;;;;;;;;;;;;;52.96;8.04;92807.78;2058420;69;20073;-79
2023/06/26 11:45:19;;;;;;;;;;;;;;;50.35;9.21;92788.50;2058518;69;20080;-79
2023/06/26 11:47:45;;;;;;;;;;;;;;;50.17;10.15;92796.16;2058549;69;20049;-78
2023/06/26 11:50:17;;;;;;;;;;;;;;;49.34;9.81;92798.25;2058354;69;20058;-78
2023/06/26 11:52:43;;;;;;;;;;;;;;;49.45;9.08;92789.13;2058392;69;20089;-79
2023/06/26 11:55:10;;;;;;;;;;;;;;;51.80;9.57;92798.94;2058708;69;20223;-77
2023/06/26 11:57:36;;;;;;;;;;;;;;;41.21;13.84;92774.34;2058562;69;20482;-79
2023/06/26 12:00:14;;;;;;;;;;;;;;;40.40;14.25;92768.22;2058326;69;20177;-79
2023/06/26 12:02:40;;;;;;;;;;;;;;;39.29;15.22;92766.31;2058316;69;20061;-78
2023/06/26 12:05:06;;;;;;;;;;;;;;;40.85;14.99;92756.34;2058264;69;20140;-79
2023/06/26 12:07:32;;;;;;;;;;;;;;;43.33;13.64;92776.00;2058320;69;20092;-80
2023/06/26 12:09:58;;;;;;;;;;;;;;;40.40;14.29;92773.41;2058063;69;20461;-76
2023/06/26 12:12:24;;;;;;;;;;;;;;;37.95;16.07;92767.09;2058576;69;20053;-81
2023/06/26 12:14:50;;;;;;;;;;;;;;;37.45;16.34;92761.06;2058500;69;20054;-79
2023/06/26 12:17:16;;;;;;;;;;;;;;;37.85;17.59;92762.38;2058569;69;20054;-79
2023/06/26 12:19:49;;;;;;;;;;;;;;;38.87;15.65;92766.78;2058456;69;20057;-79
2023/06/26 12:22:15;;;;;;;;;;;;;;;37.94;16.32;92764.94;2058640;69;20428;-81
2023/06/26 12:24:42;;;;;;;;;;;;;;;37.94;17.05;92748.06;2058704;69;20145;-81
2023/06/26 12:30:36;;;;;;;;;;;;;;;38.20;16.01;92746.19;2058979;69;20073;-82
2023/06/26 12:33:01;;;;;;;;;;;;;;;38.08;16.25;92746.72;2058964;69;20487;-85
2023/06/26 12:35:27;;;;;;;;;;;;;;;37.36;17.84;92746.69;2055684;69;20120;-83
2023/06/26 12:37:53;;;;;;;;;;;;;;;35.86;18.07;92736.03;2058779;69;20116;-80
2023/06/26 12:40:22;;;;;;;;;;;;;;;35.74;18.10;92745.25;2058956;69;20062;-80
2023/06/26 12:42:48;;;;;;;;;;;;;;;37.13;18.40;92737.34;2055628;69;20054;-80
2023/06/26 12:45:14;;;;;;;;;;;;;;;36.42;18.03;92739.97;2055744;69;20046;-80
2023/06/26 12:47:41;;;;;;;;;;;;;;;36.43;17.31;92738.47;2058816;69;20046;-80
2023/06/26 12:53:34;;;;;;;;;;;;;;;36.93;18.85;92730.06;2058759;69;20092;-79
2023/06/26 12:59:28;;;;;;;;;;;;;;;35.85;18.07;92725.84;2058916;69;20053;-80
2023/06/26 13:01:54;;;;;;;;;;;;;;;34.82;19.52;92727.69;2058925;69;20054;-83
2023/06/26 13:04:19;;;;;;;;;;;;;;;34.84;19.22;92727.59;2058778;69;20589;-78
2023/06/26 13:06:44;;;;;;;;;;;;;;;36.23;20.46;92728.94;2058768;69;20050;-83
2023/06/26 13:09:10;;;;;;;;;;;;;;;35.85;18.99;92719.28;2059399;69;20089;-80
2023/06/26 13:11:36;;;;;;;;;;;;;;;36.17;19.78;92729.16;2058796;69;20058;-80
2023/06/26 13:14:02;;;;;;;;;;;;;;;36.11;18.24;92723.53;2058448;69;20070;-80
2023/06/26 13:16:27;;;;;;;;;;;;;;;35.46;18.55;92711.78;2058294;69;20095;-80
2023/06/26 13:18:53;;;;;;;;;;;;;;;35.25;18.99;92717.56;2058718;69;20474;-80
2023/06/26 13:21:18;;;;;;;;;;;;;;;35.76;20.60;92703.47;2058711;69;20460;-80
2023/06/26 13:23:44;;;;;;;;;;;;;;;35.52;20.57;92702.81;2058631;69;20466;-80
2023/06/26 13:26:09;;;;;;;;;;;;;;;34.92;20.16;92700.31;2058794;69;20413;-80
2023/06/26 13:28:36;;;;;;;;;;;;;;;35.17;20.45;92687.88;2058748;69;20054;-80
2023/06/26 13:31:01;;;;;;;;;;;;;;;35.00;20.42;92687.66;2058681;69;20465;-80
2023/06/26 13:33:27;;;;;;;;;;;;;;;35.19;20.13;92684.88;2058683;69;20474;-80
2023/06/26 13:35:53;;;;;;;;;;;;;;;34.82;19.82;92677.22;2058802;69;20630;-80